sensor_id;sensor_type;location;lat;lon;timestamp;temperature;humidity
27128;DHT22;14660;49.008;8.390;2023-03-01T00:01:29;2.10;99.90
27128;DHT22;14660;49.008;8.390;2023-03-01T00:03:57;2.20;99.90
27128;DHT22;14660;49.008;8.390;2023-03-01T00:06:26;1.90;99.90
27128;DHT22;14660;49.008;8.390;2023-03-01T00:08:53;2.10;99.90
27128;DHT22;14660;49.008;8.390;2023-03-01T00:11:38;2.00;99.90
27128;DHT22;14660;49.008;8.390;2023-03-01T00:14:04;1.80;99.90
27128;DHT22;14660;49.008;8.390;2023-03-01T00:16:38;1.90;99.90
27128;DHT22;14660;49.008;8.390;2023-03-01T00:19:08;1.80;99.90
27128;DHT22;14660;49.008;8.390;2023-03-01T00:21:35;1.60;99.90
27128;DHT22;14660;49.008;8.390;2023-03-01T00:24:04;1.70;99.90
27128;DHT22;14660;49.008;8.390;2023-03-01T00:26:31;1.70;99.90
27128;DHT22;14660;49.008;8.390;2023-03-01T00:28:59;1.70;99.90
27128;DHT22;14660;49.008;8.390;2023-03-01T00:31:31;1.70;99.90
27128;DHT22;14660;49.008;8.390;2023-03-01T00:34:03;1.80;99.90
27128;DHT22;14660;49.008;8.390;2023-03-01T00:36:35;1.60;99.90
27128;DHT22;14660;49.008;8.390;2023-03-01T00:39:04;1.70;99.90
27128;DHT22;14660;49.008;8.390;2023-03-01T00:41:32;1.60;99.90
27128;DHT22;14660;49.008;8.390;2023-03-01T00:44:01;2.00;99.90
27128;DHT22;14660;49.008;8.390;2023-03-01T00:46:28;2.10;99.90
27128;DHT22;14660;49.008;8.390;2023-03-01T00:48:57;2.10;99.90
27128;DHT22;14660;49.008;8.390;2023-03-01T00:51:27;2.20;99.90
27128;DHT22;14660;49.008;8.390;2023-03-01T00:54:00;2.20;99.90
27128;DHT22;14660;49.008;8.390;2023-03-01T00:56:27;2.20;99.90
27128;DHT22;14660;49.008;8.390;2023-03-01T00:58:54;2.00;99.90
27128;DHT22;14660;49.008;8.390;2023-03-01T01:01:23;1.90;99.90
27128;DHT22;14660;49.008;8.390;2023-03-01T01:04:10;1.90;99.90
27128;DHT22;14660;49.008;8.390;2023-03-01T01:06:43;1.70;99.90
27128;DHT22;14660;49.008;8.390;2023-03-01T01:09:15;1.80;99.90
27128;DHT22;14660;49.008;8.390;2023-03-01T01:11:49;1.80;99.90
27128;DHT22;14660;49.008;8.390;2023-03-01T01:14:17;2.00;99.90
27128;DHT22;14660;49.008;8.390;2023-03-01T01:16:44;1.90;99.90
27128;DHT22;14660;49.008;8.390;2023-03-01T01:19:14;2.00;99.90
27128;DHT22;14660;49.008;8.390;2023-03-01T01:21:40;1.70;99.90
27128;DHT22;14660;49.008;8.390;2023-03-01T01:24:11;1.40;99.90
27128;DHT22;14660;49.008;8.390;2023-03-01T01:26:38;1.50;99.90
27128;DHT22;14660;49.008;8.390;2023-03-01T01:29:05;1.60;99.90
27128;DHT22;14660;49.008;8.390;2023-03-01T01:31:34;1.50;99.90
27128;DHT22;14660;49.008;8.390;2023-03-01T01:34:03;1.80;99.90
27128;DHT22;14660;49.008;8.390;2023-03-01T01:36:30;1.50;99.90
27128;DHT22;14660;49.008;8.390;2023-03-01T01:38:57;1.40;99.90
27128;DHT22;14660;49.008;8.390;2023-03-01T01:41:26;1.70;99.90
27128;DHT22;14660;49.008;8.390;2023-03-01T01:47:14;1.50;99.90
27128;DHT22;14660;49.008;8.390;2023-03-01T01:49:57;1.40;99.90
27128;DHT22;14660;49.008;8.390;2023-03-01T01:52:36;1.70;99.90
27128;DHT22;14660;49.008;8.390;2023-03-01T01:57:56;1.70;99.90
27128;DHT22;14660;49.008;8.390;2023-03-01T02:00:27;1.80;99.90
27128;DHT22;14660;49.008;8.390;2023-03-01T02:03:08;1.90;99.90
27128;DHT22;14660;49.008;8.390;2023-03-01T02:08:40;1.50;99.90
27128;DHT22;14660;49.008;8.390;2023-03-01T02:11:10;1.80;99.90
27128;DHT22;14660;49.008;8.390;2023-03-01T02:13:37;1.80;99.90
27128;DHT22;14660;49.008;8.390;2023-03-01T02:16:14;1.50;99.90
27128;DHT22;14660;49.008;8.390;2023-03-01T02:18:45;1.40;99.90
27128;DHT22;14660;49.008;8.390;2023-03-01T02:24:40;1.40;99.90
27128;DHT22;14660;49.008;8.390;2023-03-01T02:27:15;1.50;99.90
27128;DHT22;14660;49.008;8.390;2023-03-01T02:29:42;1.40;99.90
27128;DHT22;14660;49.008;8.390;2023-03-01T02:32:11;1.50;99.90
27128;DHT22;14660;49.008;8.390;2023-03-01T02:34:39;1.40;99.90
27128;DHT22;14660;49.008;8.390;2023-03-01T02:37:14;1.40;99.90
27128;DHT22;14660;49.008;8.390;2023-03-01T02:39:48;1.20;99.90
27128;DHT22;14660;49.008;8.390;2023-03-01T02:42:23;1.30;99.90
27128;DHT22;14660;49.008;8.390;2023-03-01T02:44:52;1.40;99.90
27128;DHT22;14660;49.008;8.390;2023-03-01T02:47:20;1.40;99.90
27128;DHT22;14660;49.008;8.390;2023-03-01T02:49:48;1.60;99.90
27128;DHT22;14660;49.008;8.390;2023-03-01T02:52:47;1.30;99.90
27128;DHT22;14660;49.008;8.390;2023-03-01T02:55:18;1.30;99.90
27128;DHT22;14660;49.008;8.390;2023-03-01T02:57:48;1.10;99.90
27128;DHT22;14660;49.008;8.390;2023-03-01T03:00:30;1.10;99.90
27128;DHT22;14660;49.008;8.390;2023-03-01T03:02:59;1.20;99.90
27128;DHT22;14660;49.008;8.390;2023-03-01T03:05:31;1.10;99.90
27128;DHT22;14660;49.008;8.390;2023-03-01T03:08:00;1.20;99.90
27128;DHT22;14660;49.008;8.390;2023-03-01T03:10:29;1.30;99.90
27128;DHT22;14660;49.008;8.390;2023-03-01T03:12:59;1.30;99.90
27128;DHT22;14660;49.008;8.390;2023-03-01T03:15:26;1.20;99.90
27128;DHT22;14660;49.008;8.390;2023-03-01T03:17:54;1.50;99.90
27128;DHT22;14660;49.008;8.390;2023-03-01T03:20:24;1.60;99.90
27128;DHT22;14660;49.008;8.390;2023-03-01T03:22:53;1.40;99.90
27128;DHT22;14660;49.008;8.390;2023-03-01T03:25:21;1.50;99.90
27128;DHT22;14660;49.008;8.390;2023-03-01T03:27:51;1.40;99.90
27128;DHT22;14660;49.008;8.390;2023-03-01T03:30:25;1.50;99.90
27128;DHT22;14660;49.008;8.390;2023-03-01T03:32:53;1.30;99.90
27128;DHT22;14660;49.008;8.390;2023-03-01T03:35:43;1.20;99.90
27128;DHT22;14660;49.008;8.390;2023-03-01T03:38:11;1.40;99.90
27128;DHT22;14660;49.008;8.390;2023-03-01T03:40:50;1.20;99.90
27128;DHT22;14660;49.008;8.390;2023-03-01T03:43:19;1.10;99.90
27128;DHT22;14660;49.008;8.390;2023-03-01T03:45:50;1.00;99.90
27128;DHT22;14660;49.008;8.390;2023-03-01T03:48:19;1.10;99.90
27128;DHT22;14660;49.008;8.390;2023-03-01T03:50:53;1.20;99.90
27128;DHT22;14660;49.008;8.390;2023-03-01T03:53:21;0.90;99.90
27128;DHT22;14660;49.008;8.390;2023-03-01T03:55:49;0.80;99.90
27128;DHT22;14660;49.008;8.390;2023-03-01T03:58:15;0.90;99.90
27128;DHT22;14660;49.008;8.390;2023-03-01T04:00:49;1.00;99.90
27128;DHT22;14660;49.008;8.390;2023-03-01T04:03:17;0.90;99.90
27128;DHT22;14660;49.008;8.390;2023-03-01T04:05:46;1.00;99.90
27128;DHT22;14660;49.008;8.390;2023-03-01T04:08:14;1.20;99.90
27128;DHT22;14660;49.008;8.390;2023-03-01T04:10:44;1.30;99.90
27128;DHT22;14660;49.008;8.390;2023-03-01T04:13:18;1.30;99.90
27128;DHT22;14660;49.008;8.390;2023-03-01T04:15:50;1.00;99.90
27128;DHT22;14660;49.008;8.390;2023-03-01T04:18:18;1.00;99.90
27128;DHT22;14660;49.008;8.390;2023-03-01T04:20:46;1.00;99.90
27128;DHT22;14660;49.008;8.390;2023-03-01T04:23:32;1.00;99.90
27128;DHT22;14660;49.008;8.390;2023-03-01T04:25:59;1.10;99.90
27128;DHT22;14660;49.008;8.390;2023-03-01T04:28:45;1.20;99.90
27128;DHT22;14660;49.008;8.390;2023-03-01T04:31:19;1.30;99.90
27128;DHT22;14660;49.008;8.390;2023-03-01T04:33:52;1.10;99.90
27128;DHT22;14660;49.008;8.390;2023-03-01T04:36:22;1.10;99.90
27128;DHT22;14660;49.008;8.390;2023-03-01T04:38:50;1.10;99.90
27128;DHT22;14660;49.008;8.390;2023-03-01T04:41:19;1.10;99.90
27128;DHT22;14660;49.008;8.390;2023-03-01T04:43:46;1.20;99.90
27128;DHT22;14660;49.008;8.390;2023-03-01T04:46:16;0.90;99.90
27128;DHT22;14660;49.008;8.390;2023-03-01T04:48:45;0.90;99.90
27128;DHT22;14660;49.008;8.390;2023-03-01T04:51:11;0.90;99.90
27128;DHT22;14660;49.008;8.390;2023-03-01T04:53:43;1.10;99.90
27128;DHT22;14660;49.008;8.390;2023-03-01T04:56:11;1.10;99.90
27128;DHT22;14660;49.008;8.390;2023-03-01T04:58:38;0.90;99.90
27128;DHT22;14660;49.008;8.390;2023-03-01T05:01:09;0.90;99.90
27128;DHT22;14660;49.008;8.390;2023-03-01T05:03:45;0.90;99.90
27128;DHT22;14660;49.008;8.390;2023-03-01T05:06:22;0.90;99.90
27128;DHT22;14660;49.008;8.390;2023-03-01T05:08:48;1.10;99.90
27128;DHT22;14660;49.008;8.390;2023-03-01T05:11:15;0.90;99.90
27128;DHT22;14660;49.008;8.390;2023-03-01T05:13:41;0.70;99.90
27128;DHT22;14660;49.008;8.390;2023-03-01T05:16:08;1.00;99.90
27128;DHT22;14660;49.008;8.390;2023-03-01T05:18:39;0.80;99.90
27128;DHT22;14660;49.008;8.390;2023-03-01T05:21:09;0.80;99.90
27128;DHT22;14660;49.008;8.390;2023-03-01T05:23:36;0.80;99.90
27128;DHT22;14660;49.008;8.390;2023-03-01T05:26:05;0.80;99.90
27128;DHT22;14660;49.008;8.390;2023-03-01T05:28:33;0.70;99.90
27128;DHT22;14660;49.008;8.390;2023-03-01T05:31:00;0.60;99.90
27128;DHT22;14660;49.008;8.390;2023-03-01T05:33:27;0.60;99.90
27128;DHT22;14660;49.008;8.390;2023-03-01T05:35:54;0.60;99.90
27128;DHT22;14660;49.008;8.390;2023-03-01T05:38:21;0.90;99.90
27128;DHT22;14660;49.008;8.390;2023-03-01T05:40:49;0.80;99.90
27128;DHT22;14660;49.008;8.390;2023-03-01T05:43:19;0.70;99.90
27128;DHT22;14660;49.008;8.390;2023-03-01T05:45:48;0.70;99.90
27128;DHT22;14660;49.008;8.390;2023-03-01T05:48:16;0.90;99.90
27128;DHT22;14660;49.008;8.390;2023-03-01T05:50:44;0.80;99.90
27128;DHT22;14660;49.008;8.390;2023-03-01T05:53:29;0.90;99.90
27128;DHT22;14660;49.008;8.390;2023-03-01T05:55:56;0.60;99.90
27128;DHT22;14660;49.008;8.390;2023-03-01T05:58:23;0.70;99.90
27128;DHT22;14660;49.008;8.390;2023-03-01T06:00:50;0.50;99.90
27128;DHT22;14660;49.008;8.390;2023-03-01T06:03:17;0.70;99.90
27128;DHT22;14660;49.008;8.390;2023-03-01T06:05:47;0.80;99.90
27128;DHT22;14660;49.008;8.390;2023-03-01T06:08:17;0.70;99.90
27128;DHT22;14660;49.008;8.390;2023-03-01T06:10:49;0.40;99.90
27128;DHT22;14660;49.008;8.390;2023-03-01T06:13:16;0.40;99.90
27128;DHT22;14660;49.008;8.390;2023-03-01T06:15:43;0.30;99.90
27128;DHT22;14660;49.008;8.390;2023-03-01T06:18:10;0.20;99.90
27128;DHT22;14660;49.008;8.390;2023-03-01T06:20:37;0.30;99.90
27128;DHT22;14660;49.008;8.390;2023-03-01T06:23:03;0.40;99.90
27128;DHT22;14660;49.008;8.390;2023-03-01T06:25:30;0.30;99.90
27128;DHT22;14660;49.008;8.390;2023-03-01T06:27:58;0.40;99.90
27128;DHT22;14660;49.008;8.390;2023-03-01T06:30:26;0.30;99.90
27128;DHT22;14660;49.008;8.390;2023-03-01T06:32:53;0.20;99.90
27128;DHT22;14660;49.008;8.390;2023-03-01T06:35:27;0.10;99.90
27128;DHT22;14660;49.008;8.390;2023-03-01T06:37:59;0.40;99.90
27128;DHT22;14660;49.008;8.390;2023-03-01T06:40:31;0.20;99.90
27128;DHT22;14660;49.008;8.390;2023-03-01T06:42:58;0.50;99.90
27128;DHT22;14660;49.008;8.390;2023-03-01T06:45:24;0.50;99.90
27128;DHT22;14660;49.008;8.390;2023-03-01T06:47:51;0.50;99.90
27128;DHT22;14660;49.008;8.390;2023-03-01T06:50:18;0.50;99.90
27128;DHT22;14660;49.008;8.390;2023-03-01T06:52:45;0.50;99.90
27128;DHT22;14660;49.008;8.390;2023-03-01T06:55:12;0.50;99.90
27128;DHT22;14660;49.008;8.390;2023-03-01T06:57:40;0.70;99.90
27128;DHT22;14660;49.008;8.390;2023-03-01T07:00:07;0.60;99.90
27128;DHT22;14660;49.008;8.390;2023-03-01T07:02:34;0.60;99.90
27128;DHT22;14660;49.008;8.390;2023-03-01T07:05:01;0.60;99.90
27128;DHT22;14660;49.008;8.390;2023-03-01T07:07:28;0.70;99.90
27128;DHT22;14660;49.008;8.390;2023-03-01T07:09:55;0.70;99.90
27128;DHT22;14660;49.008;8.390;2023-03-01T07:12:21;0.60;99.90
27128;DHT22;14660;49.008;8.390;2023-03-01T07:14:49;0.70;99.90
27128;DHT22;14660;49.008;8.390;2023-03-01T07:17:17;0.70;99.90
27128;DHT22;14660;49.008;8.390;2023-03-01T07:19:45;1.00;99.90
27128;DHT22;14660;49.008;8.390;2023-03-01T07:22:11;0.90;99.90
27128;DHT22;14660;49.008;8.390;2023-03-01T07:24:38;1.20;99.90
27128;DHT22;14660;49.008;8.390;2023-03-01T07:27:05;1.30;99.90
27128;DHT22;14660;49.008;8.390;2023-03-01T07:29:31;1.50;99.90
27128;DHT22;14660;49.008;8.390;2023-03-01T07:31:57;1.40;99.90
27128;DHT22;14660;49.008;8.390;2023-03-01T07:34:24;1.40;99.90
27128;DHT22;14660;49.008;8.390;2023-03-01T07:36:51;1.60;99.90
27128;DHT22;14660;49.008;8.390;2023-03-01T07:39:18;1.90;99.90
27128;DHT22;14660;49.008;8.390;2023-03-01T07:41:46;2.00;99.90
27128;DHT22;14660;49.008;8.390;2023-03-01T07:44:13;1.90;99.90
27128;DHT22;14660;49.008;8.390;2023-03-01T07:46:40;1.80;99.90
27128;DHT22;14660;49.008;8.390;2023-03-01T07:49:07;1.80;99.90
27128;DHT22;14660;49.008;8.390;2023-03-01T07:51:34;1.90;99.90
27128;DHT22;14660;49.008;8.390;2023-03-01T07:54:01;2.00;99.90
27128;DHT22;14660;49.008;8.390;2023-03-01T07:56:28;2.10;99.90
27128;DHT22;14660;49.008;8.390;2023-03-01T07:58:55;2.20;99.90
27128;DHT22;14660;49.008;8.390;2023-03-01T08:01:22;2.10;99.90
27128;DHT22;14660;49.008;8.390;2023-03-01T08:03:49;2.30;99.90
27128;DHT22;14660;49.008;8.390;2023-03-01T08:06:19;2.40;99.90
27128;DHT22;14660;49.008;8.390;2023-03-01T08:08:46;2.40;99.90
27128;DHT22;14660;49.008;8.390;2023-03-01T08:11:14;2.40;99.90
27128;DHT22;14660;49.008;8.390;2023-03-01T08:13:46;2.60;99.90
27128;DHT22;14660;49.008;8.390;2023-03-01T08:16:15;2.50;99.90
27128;DHT22;14660;49.008;8.390;2023-03-01T08:18:42;2.50;99.90
27128;DHT22;14660;49.008;8.390;2023-03-01T08:21:12;2.50;99.90
27128;DHT22;14660;49.008;8.390;2023-03-01T08:23:39;2.60;99.90
27128;DHT22;14660;49.008;8.390;2023-03-01T08:26:25;2.70;99.90
27128;DHT22;14660;49.008;8.390;2023-03-01T08:28:51;2.90;99.90
27128;DHT22;14660;49.008;8.390;2023-03-01T08:31:38;2.90;99.90
27128;DHT22;14660;49.008;8.390;2023-03-01T08:34:08;3.00;99.90
27128;DHT22;14660;49.008;8.390;2023-03-01T08:36:40;3.00;99.90
27128;DHT22;14660;49.008;8.390;2023-03-01T08:39:10;2.90;99.90
27128;DHT22;14660;49.008;8.390;2023-03-01T08:41:38;2.80;99.90
27128;DHT22;14660;49.008;8.390;2023-03-01T08:44:06;2.80;99.90
27128;DHT22;14660;49.008;8.390;2023-03-01T08:46:36;2.90;99.90
27128;DHT22;14660;49.008;8.390;2023-03-01T08:49:11;2.90;99.90
27128;DHT22;14660;49.008;8.390;2023-03-01T08:51:38;2.90;99.90
27128;DHT22;14660;49.008;8.390;2023-03-01T08:54:09;3.00;99.90
27128;DHT22;14660;49.008;8.390;2023-03-01T08:56:37;3.00;99.90
27128;DHT22;14660;49.008;8.390;2023-03-01T08:59:04;3.20;99.90
27128;DHT22;14660;49.008;8.390;2023-03-01T09:01:31;3.10;99.90
27128;DHT22;14660;49.008;8.390;2023-03-01T09:03:58;3.00;99.90
27128;DHT22;14660;49.008;8.390;2023-03-01T09:06:25;3.10;99.90
27128;DHT22;14660;49.008;8.390;2023-03-01T09:08:53;3.10;99.90
27128;DHT22;14660;49.008;8.390;2023-03-01T09:11:23;3.30;99.90
27128;DHT22;14660;49.008;8.390;2023-03-01T09:13:51;3.20;99.90
27128;DHT22;14660;49.008;8.390;2023-03-01T09:16:19;3.20;99.90
27128;DHT22;14660;49.008;8.390;2023-03-01T09:18:56;3.30;99.90
27128;DHT22;14660;49.008;8.390;2023-03-01T09:21:23;3.40;99.90
27128;DHT22;14660;49.008;8.390;2023-03-01T09:23:50;3.30;99.90
27128;DHT22;14660;49.008;8.390;2023-03-01T09:26:19;3.40;99.90
27128;DHT22;14660;49.008;8.390;2023-03-01T09:28:50;3.50;99.90
27128;DHT22;14660;49.008;8.390;2023-03-01T09:31:19;3.50;99.90
27128;DHT22;14660;49.008;8.390;2023-03-01T09:33:48;3.60;99.90
27128;DHT22;14660;49.008;8.390;2023-03-01T09:36:18;3.70;99.90
27128;DHT22;14660;49.008;8.390;2023-03-01T09:38:45;3.60;99.90
27128;DHT22;14660;49.008;8.390;2023-03-01T09:47:04;3.90;99.90
27128;DHT22;14660;49.008;8.390;2023-03-01T09:49:34;3.80;99.90
27128;DHT22;14660;49.008;8.390;2023-03-01T09:55:16;3.90;99.90
27128;DHT22;14660;49.008;8.390;2023-03-01T10:00:49;3.90;99.90
27128;DHT22;14660;49.008;8.390;2023-03-01T10:06:21;3.90;99.90
27128;DHT22;14660;49.008;8.390;2023-03-01T10:09:12;4.00;99.90
27128;DHT22;14660;49.008;8.390;2023-03-01T10:11:45;4.20;99.90
27128;DHT22;14660;49.008;8.390;2023-03-01T10:23:01;4.40;99.90
27128;DHT22;14660;49.008;8.390;2023-03-01T10:31:49;4.40;99.90
27128;DHT22;14660;49.008;8.390;2023-03-01T10:34:35;4.40;99.90
27128;DHT22;14660;49.008;8.390;2023-03-01T10:37:19;4.50;99.90
27128;DHT22;14660;49.008;8.390;2023-03-01T10:40:07;4.50;99.90
27128;DHT22;14660;49.008;8.390;2023-03-01T10:42:38;4.60;99.90
27128;DHT22;14660;49.008;8.390;2023-03-01T10:51:19;4.80;99.90
27128;DHT22;14660;49.008;8.390;2023-03-01T10:53:51;4.70;99.90
27128;DHT22;14660;49.008;8.390;2023-03-01T10:56:19;4.80;99.90
27128;DHT22;14660;49.008;8.390;2023-03-01T10:59:05;4.80;99.90
27128;DHT22;14660;49.008;8.390;2023-03-01T11:01:33;4.90;99.90
27128;DHT22;14660;49.008;8.390;2023-03-01T11:04:22;4.90;99.90
27128;DHT22;14660;49.008;8.390;2023-03-01T11:06:59;5.00;99.90
27128;DHT22;14660;49.008;8.390;2023-03-01T11:09:31;5.10;99.90
27128;DHT22;14660;49.008;8.390;2023-03-01T11:12:13;5.10;99.90
27128;DHT22;14660;49.008;8.390;2023-03-01T11:14:50;5.20;99.90
27128;DHT22;14660;49.008;8.390;2023-03-01T11:17:29;5.30;99.90
27128;DHT22;14660;49.008;8.390;2023-03-01T11:20:35;5.40;99.90
27128;DHT22;14660;49.008;8.390;2023-03-01T11:23:05;5.40;99.90
27128;DHT22;14660;49.008;8.390;2023-03-01T11:25:56;5.50;99.90
27128;DHT22;14660;49.008;8.390;2023-03-01T11:28:25;5.50;99.90
27128;DHT22;14660;49.008;8.390;2023-03-01T11:31:11;5.50;99.90
27128;DHT22;14660;49.008;8.390;2023-03-01T11:34:10;5.50;99.90
27128;DHT22;14660;49.008;8.390;2023-03-01T11:36:58;5.50;99.90
27128;DHT22;14660;49.008;8.390;2023-03-01T11:40:28;5.80;99.90
27128;DHT22;14660;49.008;8.390;2023-03-01T11:43:19;5.70;99.90
27128;DHT22;14660;49.008;8.390;2023-03-01T12:52:53;6.60;99.90
27128;DHT22;14660;49.008;8.390;2023-03-01T12:55:40;6.60;99.90
27128;DHT22;14660;49.008;8.390;2023-03-01T13:04:36;6.70;99.90
27128;DHT22;14660;49.008;8.390;2023-03-01T13:13:21;6.90;99.90
27128;DHT22;14660;49.008;8.390;2023-03-01T13:15:50;6.90;99.90
27128;DHT22;14660;49.008;8.390;2023-03-01T13:18:39;7.00;99.90
27128;DHT22;14660;49.008;8.390;2023-03-01T13:21:06;7.00;99.90
27128;DHT22;14660;49.008;8.390;2023-03-01T13:23:38;7.00;99.90
27128;DHT22;14660;49.008;8.390;2023-03-01T13:26:24;7.10;99.90
27128;DHT22;14660;49.008;8.390;2023-03-01T13:28:52;7.20;99.90
27128;DHT22;14660;49.008;8.390;2023-03-01T13:34:43;7.30;99.90
27128;DHT22;14660;49.008;8.390;2023-03-01T13:37:20;7.20;99.90
27128;DHT22;14660;49.008;8.390;2023-03-01T13:39:47;7.30;99.90
27128;DHT22;14660;49.008;8.390;2023-03-01T13:42:50;7.20;99.90
27128;DHT22;14660;49.008;8.390;2023-03-01T13:48:39;7.40;99.90
27128;DHT22;14660;49.008;8.390;2023-03-01T13:51:19;7.40;99.90
27128;DHT22;14660;49.008;8.390;2023-03-01T13:53:58;7.40;99.90
27128;DHT22;14660;49.008;8.390;2023-03-01T13:56:44;7.50;99.90
27128;DHT22;14660;49.008;8.390;2023-03-01T13:59:20;7.60;99.90
27128;DHT22;14660;49.008;8.390;2023-03-01T14:01:57;7.60;99.90
27128;DHT22;14660;49.008;8.390;2023-03-01T14:04:30;7.60;99.90
27128;DHT22;14660;49.008;8.390;2023-03-01T14:07:23;7.60;99.90
27128;DHT22;14660;49.008;8.390;2023-03-01T14:10:00;7.60;99.90
27128;DHT22;14660;49.008;8.390;2023-03-01T14:12:57;7.70;99.90
27128;DHT22;14660;49.008;8.390;2023-03-01T14:21:34;7.80;99.90
27128;DHT22;14660;49.008;8.390;2023-03-01T14:24:03;7.80;99.90
27128;DHT22;14660;49.008;8.390;2023-03-01T14:26:31;7.80;99.90
27128;DHT22;14660;49.008;8.390;2023-03-01T14:29:02;7.90;99.90
27128;DHT22;14660;49.008;8.390;2023-03-01T14:31:47;7.90;99.90
27128;DHT22;14660;49.008;8.390;2023-03-01T14:34:22;7.80;99.90
27128;DHT22;14660;49.008;8.390;2023-03-01T14:36:50;7.80;99.90
27128;DHT22;14660;49.008;8.390;2023-03-01T14:39:23;7.80;99.90
27128;DHT22;14660;49.008;8.390;2023-03-01T14:41:52;7.70;99.90
27128;DHT22;14660;49.008;8.390;2023-03-01T14:44:24;7.80;99.90
27128;DHT22;14660;49.008;8.390;2023-03-01T14:46:55;7.90;99.90
27128;DHT22;14660;49.008;8.390;2023-03-01T14:49:25;7.90;99.90
27128;DHT22;14660;49.008;8.390;2023-03-01T14:54:49;8.00;99.90
27128;DHT22;14660;49.008;8.390;2023-03-01T14:57:20;7.90;99.90
27128;DHT22;14660;49.008;8.390;2023-03-01T14:59:57;7.90;99.90
27128;DHT22;14660;49.008;8.390;2023-03-01T15:02:27;7.90;99.90
27128;DHT22;14660;49.008;8.390;2023-03-01T15:05:03;7.90;99.90
27128;DHT22;14660;49.008;8.390;2023-03-01T15:07:38;8.00;99.90
27128;DHT22;14660;49.008;8.390;2023-03-01T15:10:12;8.10;99.90
27128;DHT22;14660;49.008;8.390;2023-03-01T15:12:41;8.10;99.90
27128;DHT22;14660;49.008;8.390;2023-03-01T15:15:35;8.10;99.90
27128;DHT22;14660;49.008;8.390;2023-03-01T15:18:26;8.10;99.90
27128;DHT22;14660;49.008;8.390;2023-03-01T15:20:52;8.10;99.90
27128;DHT22;14660;49.008;8.390;2023-03-01T15:23:29;8.00;99.90
27128;DHT22;14660;49.008;8.390;2023-03-01T15:25:58;8.10;99.90
27128;DHT22;14660;49.008;8.390;2023-03-01T15:28:31;7.90;99.90
27128;DHT22;14660;49.008;8.390;2023-03-01T15:31:23;7.90;99.90
27128;DHT22;14660;49.008;8.390;2023-03-01T15:33:50;7.90;99.90
27128;DHT22;14660;49.008;8.390;2023-03-01T15:36:39;7.90;99.90
27128;DHT22;14660;49.008;8.390;2023-03-01T15:39:43;7.90;99.90
27128;DHT22;14660;49.008;8.390;2023-03-01T15:42:45;8.00;99.90
27128;DHT22;14660;49.008;8.390;2023-03-01T15:45:23;7.90;99.90
27128;DHT22;14660;49.008;8.390;2023-03-01T15:47:54;8.00;99.90
27128;DHT22;14660;49.008;8.390;2023-03-01T15:50:33;8.00;99.90
27128;DHT22;14660;49.008;8.390;2023-03-01T15:53:04;7.90;99.90
27128;DHT22;14660;49.008;8.390;2023-03-01T15:55:33;7.90;99.90
27128;DHT22;14660;49.008;8.390;2023-03-01T16:01:03;7.90;99.90
27128;DHT22;14660;49.008;8.390;2023-03-01T16:03:35;7.90;99.90
27128;DHT22;14660;49.008;8.390;2023-03-01T16:06:02;7.90;99.90
27128;DHT22;14660;49.008;8.390;2023-03-01T16:08:29;7.90;99.90
27128;DHT22;14660;49.008;8.390;2023-03-01T16:10:56;8.00;99.90
27128;DHT22;14660;49.008;8.390;2023-03-01T16:13:23;7.90;99.90
27128;DHT22;14660;49.008;8.390;2023-03-01T16:15:52;7.90;99.90
27128;DHT22;14660;49.008;8.390;2023-03-01T16:18:19;7.90;99.90
27128;DHT22;14660;49.008;8.390;2023-03-01T16:20:46;7.90;99.90
27128;DHT22;14660;49.008;8.390;2023-03-01T16:23:13;7.90;99.90
27128;DHT22;14660;49.008;8.390;2023-03-01T16:25:41;7.90;99.90
27128;DHT22;14660;49.008;8.390;2023-03-01T16:28:08;7.80;99.90
27128;DHT22;14660;49.008;8.390;2023-03-01T16:30:46;7.90;99.90
27128;DHT22;14660;49.008;8.390;2023-03-01T16:33:15;7.80;99.90
27128;DHT22;14660;49.008;8.390;2023-03-01T16:35:42;7.70;99.90
27128;DHT22;14660;49.008;8.390;2023-03-01T16:38:11;7.80;99.90
27128;DHT22;14660;49.008;8.390;2023-03-01T16:40:38;7.80;99.90
27128;DHT22;14660;49.008;8.390;2023-03-01T16:43:05;7.80;99.90
27128;DHT22;14660;49.008;8.390;2023-03-01T16:45:35;7.70;99.90
27128;DHT22;14660;49.008;8.390;2023-03-01T16:48:03;7.60;99.90
27128;DHT22;14660;49.008;8.390;2023-03-01T16:50:30;7.60;99.90
27128;DHT22;14660;49.008;8.390;2023-03-01T16:52:58;7.70;99.90
27128;DHT22;14660;49.008;8.390;2023-03-01T16:55:24;7.60;99.90
27128;DHT22;14660;49.008;8.390;2023-03-01T16:57:51;7.40;99.90
27128;DHT22;14660;49.008;8.390;2023-03-01T17:00:18;7.40;99.90
27128;DHT22;14660;49.008;8.390;2023-03-01T17:02:44;7.30;99.90
27128;DHT22;14660;49.008;8.390;2023-03-01T17:05:11;7.40;99.90
27128;DHT22;14660;49.008;8.390;2023-03-01T17:07:38;7.30;99.90
27128;DHT22;14660;49.008;8.390;2023-03-01T17:10:07;7.30;99.90
27128;DHT22;14660;49.008;8.390;2023-03-01T17:12:35;7.20;99.90
27128;DHT22;14660;49.008;8.390;2023-03-01T17:15:03;7.20;99.90
27128;DHT22;14660;49.008;8.390;2023-03-01T17:17:31;7.30;99.90
27128;DHT22;14660;49.008;8.390;2023-03-01T17:19:58;7.30;99.90
27128;DHT22;14660;49.008;8.390;2023-03-01T17:22:25;7.40;99.90
27128;DHT22;14660;49.008;8.390;2023-03-01T17:24:51;7.30;99.90
27128;DHT22;14660;49.008;8.390;2023-03-01T17:27:18;7.20;99.90
27128;DHT22;14660;49.008;8.390;2023-03-01T17:29:45;7.20;99.90
27128;DHT22;14660;49.008;8.390;2023-03-01T17:32:12;7.10;99.90
27128;DHT22;14660;49.008;8.390;2023-03-01T17:34:39;7.00;99.90
27128;DHT22;14660;49.008;8.390;2023-03-01T17:37:07;7.10;99.90
27128;DHT22;14660;49.008;8.390;2023-03-01T17:39:35;7.10;99.90
27128;DHT22;14660;49.008;8.390;2023-03-01T17:42:03;7.10;99.90
27128;DHT22;14660;49.008;8.390;2023-03-01T17:44:33;7.00;99.90
27128;DHT22;14660;49.008;8.390;2023-03-01T17:47:00;7.20;99.90
27128;DHT22;14660;49.008;8.390;2023-03-01T17:49:27;7.10;99.90
27128;DHT22;14660;49.008;8.390;2023-03-01T17:51:56;7.20;99.90
27128;DHT22;14660;49.008;8.390;2023-03-01T17:54:23;7.20;99.90
27128;DHT22;14660;49.008;8.390;2023-03-01T17:56:50;7.00;99.90
27128;DHT22;14660;49.008;8.390;2023-03-01T17:59:16;7.10;99.90
27128;DHT22;14660;49.008;8.390;2023-03-01T18:01:43;7.00;99.90
27128;DHT22;14660;49.008;8.390;2023-03-01T18:04:10;7.00;99.90
27128;DHT22;14660;49.008;8.390;2023-03-01T18:06:37;7.00;99.90
27128;DHT22;14660;49.008;8.390;2023-03-01T18:09:09;6.90;99.90
27128;DHT22;14660;49.008;8.390;2023-03-01T18:11:37;6.60;99.90
27128;DHT22;14660;49.008;8.390;2023-03-01T18:14:05;6.70;99.90
27128;DHT22;14660;49.008;8.390;2023-03-01T18:16:32;6.70;99.90
27128;DHT22;14660;49.008;8.390;2023-03-01T18:19:00;6.60;99.90
27128;DHT22;14660;49.008;8.390;2023-03-01T18:21:28;6.70;99.90
27128;DHT22;14660;49.008;8.390;2023-03-01T18:23:55;6.80;99.90
27128;DHT22;14660;49.008;8.390;2023-03-01T18:26:22;6.70;99.90
27128;DHT22;14660;49.008;8.390;2023-03-01T18:28:51;6.70;99.90
27128;DHT22;14660;49.008;8.390;2023-03-01T18:31:20;6.80;99.90
27128;DHT22;14660;49.008;8.390;2023-03-01T18:33:50;6.60;99.90
27128;DHT22;14660;49.008;8.390;2023-03-01T18:36:29;6.60;99.90
27128;DHT22;14660;49.008;8.390;2023-03-01T18:38:56;6.40;99.90